LYBE/BEG METAR and TAF weather

Enter ICAO airport designator
Station Type Date Time Source
LYBE METAR 2017/09/24 08:00 UTC NOAA

LYBE 240800Z 32003KT 280V360 CAVOK 16/09 Q1021 NOSIG


Station Type Date Time Source
LYBE Decoded METAR 2017/09/24 08:00 UTC NOAA

Beograd / Surcin, Serbia and Montenegro (LYBE) 44-49N 020-17E 99M
Sep 24, 2017 - 04:00 AM EDT / 2017.09.24 0800 UTC
Wind: from the NW (320 degrees) at 3 MPH (3 KT) (direction variable):0
Visibility: greater than 7 mile(s):0
Temperature: 60 F (16 C)
Dew Point: 48 F (9 C)
Relative Humidity: 63%
Pressure (altimeter): 30.15 in. Hg (1021 hPa)
ob: LYBE 240800Z 32003KT 280V360 CAVOK 16/09 Q1021 NOSIG
cycle: 8

Station Type Date Time Source
LYBE TAF 2017/09/24 06:25 UTC NOAA

TAF LYBE 240500Z 2406/2506 25006KT 9999 SCT040 TX21/2412Z TN08/2504Z PROB40
TEMPO 2414/2418 SHRA SCT033TCU BKN040


Example: see airport list